sensor_id;sensor_type;location;lat;lon;timestamp;P1;durP1;ratioP1;P2;durP2;ratioP2
8580;SDS011;4328;48.622;9.230;2022-12-11T00:02:00;20.90;;;14.43;;
8580;SDS011;4328;48.622;9.230;2022-12-11T00:04:27;22.77;;;15.03;;
8580;SDS011;4328;48.622;9.230;2022-12-11T00:06:56;22.63;;;15.03;;
8580;SDS011;4328;48.622;9.230;2022-12-11T00:09:22;19.43;;;14.20;;
8580;SDS011;4328;48.622;9.230;2022-12-11T00:11:49;19.53;;;13.73;;
8580;SDS011;4328;48.622;9.230;2022-12-11T00:14:16;20.73;;;14.53;;
8580;SDS011;4328;48.622;9.230;2022-12-11T00:16:42;21.17;;;14.93;;
8580;SDS011;4328;48.622;9.230;2022-12-11T00:19:09;22.00;;;15.37;;
8580;SDS011;4328;48.622;9.230;2022-12-11T00:21:36;17.87;;;13.27;;
8580;SDS011;4328;48.622;9.230;2022-12-11T00:24:04;19.93;;;13.70;;
8580;SDS011;4328;48.622;9.230;2022-12-11T00:26:31;18.53;;;13.20;;
8580;SDS011;4328;48.622;9.230;2022-12-11T00:28:58;17.90;;;12.43;;
8580;SDS011;4328;48.622;9.230;2022-12-11T00:31:24;17.50;;;12.53;;
8580;SDS011;4328;48.622;9.230;2022-12-11T00:33:51;17.77;;;13.07;;
8580;SDS011;4328;48.622;9.230;2022-12-11T00:36:18;17.70;;;12.50;;
8580;SDS011;4328;48.622;9.230;2022-12-11T00:38:46;16.37;;;12.30;;
8580;SDS011;4328;48.622;9.230;2022-12-11T00:41:15;16.67;;;12.13;;
8580;SDS011;4328;48.622;9.230;2022-12-11T00:43:42;16.40;;;12.23;;
8580;SDS011;4328;48.622;9.230;2022-12-11T00:46:09;15.30;;;11.73;;
8580;SDS011;4328;48.622;9.230;2022-12-11T00:48:36;18.10;;;12.43;;
8580;SDS011;4328;48.622;9.230;2022-12-11T00:51:03;18.00;;;12.67;;
8580;SDS011;4328;48.622;9.230;2022-12-11T00:53:29;16.63;;;11.73;;
8580;SDS011;4328;48.622;9.230;2022-12-11T00:55:56;14.90;;;11.47;;
8580;SDS011;4328;48.622;9.230;2022-12-11T00:58:24;15.87;;;10.83;;
8580;SDS011;4328;48.622;9.230;2022-12-11T01:00:51;15.27;;;10.80;;
8580;SDS011;4328;48.622;9.230;2022-12-11T01:03:17;15.27;;;11.73;;
8580;SDS011;4328;48.622;9.230;2022-12-11T01:05:50;16.83;;;12.10;;
8580;SDS011;4328;48.622;9.230;2022-12-11T01:08:18;16.27;;;11.53;;
8580;SDS011;4328;48.622;9.230;2022-12-11T01:10:44;15.97;;;11.70;;
8580;SDS011;4328;48.622;9.230;2022-12-11T01:13:10;15.07;;;11.07;;
8580;SDS011;4328;48.622;9.230;2022-12-11T01:15:39;14.33;;;11.00;;
8580;SDS011;4328;48.622;9.230;2022-12-11T01:18:07;13.70;;;10.70;;
8580;SDS011;4328;48.622;9.230;2022-12-11T01:20:35;13.03;;;10.43;;
8580;SDS011;4328;48.622;9.230;2022-12-11T01:23:03;16.27;;;10.93;;
8580;SDS011;4328;48.622;9.230;2022-12-11T01:25:29;16.63;;;11.67;;
8580;SDS011;4328;48.622;9.230;2022-12-11T01:27:57;15.03;;;10.43;;
8580;SDS011;4328;48.622;9.230;2022-12-11T01:30:24;15.83;;;11.13;;
8580;SDS011;4328;48.622;9.230;2022-12-11T01:32:53;13.27;;;10.67;;
8580;SDS011;4328;48.622;9.230;2022-12-11T01:35:19;13.83;;;10.90;;
8580;SDS011;4328;48.622;9.230;2022-12-11T01:37:46;14.57;;;11.37;;
8580;SDS011;4328;48.622;9.230;2022-12-11T01:40:14;15.87;;;11.53;;
8580;SDS011;4328;48.622;9.230;2022-12-11T01:42:42;13.37;;;10.20;;
8580;SDS011;4328;48.622;9.230;2022-12-11T01:48:09;14.57;;;11.10;;
8580;SDS011;4328;48.622;9.230;2022-12-11T01:50:38;15.40;;;11.13;;
8580;SDS011;4328;48.622;9.230;2022-12-11T01:53:09;15.27;;;10.73;;
8580;SDS011;4328;48.622;9.230;2022-12-11T01:55:39;15.20;;;10.77;;
8580;SDS011;4328;48.622;9.230;2022-12-11T01:58:07;15.07;;;10.13;;
8580;SDS011;4328;48.622;9.230;2022-12-11T02:00:35;14.47;;;10.80;;
8580;SDS011;4328;48.622;9.230;2022-12-11T02:03:02;14.47;;;10.80;;
8580;SDS011;4328;48.622;9.230;2022-12-11T02:05:31;14.57;;;10.40;;
8580;SDS011;4328;48.622;9.230;2022-12-11T02:07:58;16.17;;;11.80;;
8580;SDS011;4328;48.622;9.230;2022-12-11T02:10:31;17.23;;;11.67;;
8580;SDS011;4328;48.622;9.230;2022-12-11T02:13:14;14.03;;;10.87;;
8580;SDS011;4328;48.622;9.230;2022-12-11T02:15:48;14.93;;;10.73;;
8580;SDS011;4328;48.622;9.230;2022-12-11T02:18:22;15.27;;;11.23;;
8580;SDS011;4328;48.622;9.230;2022-12-11T02:20:59;16.03;;;11.97;;
8580;SDS011;4328;48.622;9.230;2022-12-11T02:23:36;13.80;;;10.67;;
8580;SDS011;4328;48.622;9.230;2022-12-11T02:26:19;15.10;;;11.20;;
8580;SDS011;4328;48.622;9.230;2022-12-11T02:29:05;13.67;;;10.93;;
8580;SDS011;4328;48.622;9.230;2022-12-11T02:31:35;14.40;;;11.07;;
8580;SDS011;4328;48.622;9.230;2022-12-11T02:34:07;14.50;;;11.27;;
8580;SDS011;4328;48.622;9.230;2022-12-11T02:36:37;13.97;;;10.87;;
8580;SDS011;4328;48.622;9.230;2022-12-11T02:39:07;16.67;;;11.87;;
8580;SDS011;4328;48.622;9.230;2022-12-11T02:41:37;13.60;;;10.40;;
8580;SDS011;4328;48.622;9.230;2022-12-11T02:44:06;14.93;;;11.43;;
8580;SDS011;4328;48.622;9.230;2022-12-11T02:46:36;14.30;;;11.10;;
8580;SDS011;4328;48.622;9.230;2022-12-11T02:49:04;15.03;;;11.17;;
8580;SDS011;4328;48.622;9.230;2022-12-11T02:51:33;16.97;;;11.83;;
8580;SDS011;4328;48.622;9.230;2022-12-11T02:54:04;16.03;;;11.33;;
8580;SDS011;4328;48.622;9.230;2022-12-11T02:56:35;15.00;;;10.87;;
8580;SDS011;4328;48.622;9.230;2022-12-11T02:59:08;16.80;;;11.80;;
8580;SDS011;4328;48.622;9.230;2022-12-11T03:01:39;15.53;;;11.87;;
8580;SDS011;4328;48.622;9.230;2022-12-11T03:04:06;15.07;;;10.57;;
8580;SDS011;4328;48.622;9.230;2022-12-11T03:06:35;13.90;;;11.40;;
8580;SDS011;4328;48.622;9.230;2022-12-11T03:09:03;14.27;;;11.20;;
8580;SDS011;4328;48.622;9.230;2022-12-11T03:11:30;14.20;;;10.07;;
8580;SDS011;4328;48.622;9.230;2022-12-11T03:13:57;15.10;;;11.23;;
8580;SDS011;4328;48.622;9.230;2022-12-11T03:16:30;14.47;;;10.90;;
8580;SDS011;4328;48.622;9.230;2022-12-11T03:19:03;14.93;;;11.33;;
8580;SDS011;4328;48.622;9.230;2022-12-11T03:21:37;17.23;;;11.60;;
8580;SDS011;4328;48.622;9.230;2022-12-11T03:24:08;15.57;;;11.83;;
8580;SDS011;4328;48.622;9.230;2022-12-11T03:26:40;13.33;;;10.70;;
8580;SDS011;4328;48.622;9.230;2022-12-11T03:29:12;14.43;;;11.03;;
8580;SDS011;4328;48.622;9.230;2022-12-11T03:31:45;13.33;;;10.90;;
8580;SDS011;4328;48.622;9.230;2022-12-11T03:34:18;14.90;;;11.33;;
8580;SDS011;4328;48.622;9.230;2022-12-11T03:36:49;13.40;;;10.20;;
8580;SDS011;4328;48.622;9.230;2022-12-11T03:39:19;14.37;;;10.50;;
8580;SDS011;4328;48.622;9.230;2022-12-11T03:41:48;15.53;;;11.33;;
8580;SDS011;4328;48.622;9.230;2022-12-11T03:44:17;14.10;;;10.73;;
8580;SDS011;4328;48.622;9.230;2022-12-11T03:46:47;15.30;;;10.83;;
8580;SDS011;4328;48.622;9.230;2022-12-11T03:49:18;14.57;;;10.10;;
8580;SDS011;4328;48.622;9.230;2022-12-11T03:51:47;14.30;;;10.40;;
8580;SDS011;4328;48.622;9.230;2022-12-11T03:54:17;13.53;;;10.33;;
8580;SDS011;4328;48.622;9.230;2022-12-11T03:56:45;16.47;;;11.23;;
8580;SDS011;4328;48.622;9.230;2022-12-11T03:59:14;15.47;;;11.23;;
8580;SDS011;4328;48.622;9.230;2022-12-11T04:01:41;16.10;;;11.30;;
8580;SDS011;4328;48.622;9.230;2022-12-11T04:04:09;15.30;;;11.87;;
8580;SDS011;4328;48.622;9.230;2022-12-11T04:06:35;15.63;;;11.57;;
8580;SDS011;4328;48.622;9.230;2022-12-11T04:09:02;16.43;;;11.93;;
8580;SDS011;4328;48.622;9.230;2022-12-11T04:11:29;17.30;;;12.57;;
8580;SDS011;4328;48.622;9.230;2022-12-11T04:14:01;15.60;;;11.10;;
8580;SDS011;4328;48.622;9.230;2022-12-11T04:16:47;15.77;;;11.80;;
8580;SDS011;4328;48.622;9.230;2022-12-11T04:19:15;15.40;;;11.40;;
8580;SDS011;4328;48.622;9.230;2022-12-11T04:21:59;16.03;;;11.33;;
8580;SDS011;4328;48.622;9.230;2022-12-11T04:24:52;15.57;;;11.60;;
8580;SDS011;4328;48.622;9.230;2022-12-11T04:27:18;14.80;;;11.77;;
8580;SDS011;4328;48.622;9.230;2022-12-11T04:29:59;15.47;;;11.90;;
8580;SDS011;4328;48.622;9.230;2022-12-11T04:32:25;17.67;;;12.43;;
8580;SDS011;4328;48.622;9.230;2022-12-11T04:34:54;15.30;;;11.53;;
8580;SDS011;4328;48.622;9.230;2022-12-11T04:37:20;13.70;;;10.23;;
8580;SDS011;4328;48.622;9.230;2022-12-11T04:39:47;14.67;;;10.67;;
8580;SDS011;4328;48.622;9.230;2022-12-11T04:42:14;13.93;;;10.07;;
8580;SDS011;4328;48.622;9.230;2022-12-11T04:44:40;14.73;;;10.27;;
8580;SDS011;4328;48.622;9.230;2022-12-11T04:47:07;17.50;;;11.00;;
8580;SDS011;4328;48.622;9.230;2022-12-11T04:49:34;14.10;;;10.40;;
8580;SDS011;4328;48.622;9.230;2022-12-11T04:52:02;13.20;;;10.10;;
8580;SDS011;4328;48.622;9.230;2022-12-11T04:54:29;13.93;;;10.27;;
8580;SDS011;4328;48.622;9.230;2022-12-11T04:56:56;13.37;;;9.67;;
8580;SDS011;4328;48.622;9.230;2022-12-11T04:59:22;13.23;;;10.10;;
8580;SDS011;4328;48.622;9.230;2022-12-11T05:01:49;12.17;;;9.87;;
8580;SDS011;4328;48.622;9.230;2022-12-11T05:04:16;14.50;;;10.20;;
8580;SDS011;4328;48.622;9.230;2022-12-11T05:06:42;12.37;;;9.20;;
8580;SDS011;4328;48.622;9.230;2022-12-11T05:09:10;12.57;;;9.50;;
8580;SDS011;4328;48.622;9.230;2022-12-11T05:11:37;11.83;;;8.73;;
8580;SDS011;4328;48.622;9.230;2022-12-11T05:14:04;10.93;;;8.60;;
8580;SDS011;4328;48.622;9.230;2022-12-11T05:16:31;10.77;;;8.53;;
8580;SDS011;4328;48.622;9.230;2022-12-11T05:18:57;12.70;;;8.70;;
8580;SDS011;4328;48.622;9.230;2022-12-11T05:21:24;11.93;;;8.60;;
8580;SDS011;4328;48.622;9.230;2022-12-11T05:23:51;10.10;;;8.47;;
8580;SDS011;4328;48.622;9.230;2022-12-11T05:26:19;10.97;;;8.57;;
8580;SDS011;4328;48.622;9.230;2022-12-11T05:28:45;12.10;;;8.93;;
8580;SDS011;4328;48.622;9.230;2022-12-11T05:31:18;12.57;;;9.50;;
8580;SDS011;4328;48.622;9.230;2022-12-11T05:33:46;12.20;;;8.53;;
8580;SDS011;4328;48.622;9.230;2022-12-11T05:36:15;12.97;;;9.23;;
8580;SDS011;4328;48.622;9.230;2022-12-11T05:38:43;11.83;;;9.03;;
8580;SDS011;4328;48.622;9.230;2022-12-11T05:41:10;13.10;;;9.20;;
8580;SDS011;4328;48.622;9.230;2022-12-11T05:43:40;11.57;;;8.50;;
8580;SDS011;4328;48.622;9.230;2022-12-11T05:46:07;12.10;;;9.23;;
8580;SDS011;4328;48.622;9.230;2022-12-11T05:48:36;12.93;;;9.83;;
8580;SDS011;4328;48.622;9.230;2022-12-11T05:51:04;10.67;;;9.13;;
8580;SDS011;4328;48.622;9.230;2022-12-11T05:53:32;13.43;;;9.10;;
8580;SDS011;4328;48.622;9.230;2022-12-11T05:56:02;10.60;;;8.83;;
8580;SDS011;4328;48.622;9.230;2022-12-11T05:58:30;10.90;;;8.83;;
8580;SDS011;4328;48.622;9.230;2022-12-11T06:00:59;13.60;;;9.13;;
8580;SDS011;4328;48.622;9.230;2022-12-11T06:03:26;13.27;;;8.70;;
8580;SDS011;4328;48.622;9.230;2022-12-11T06:05:53;11.97;;;9.20;;
8580;SDS011;4328;48.622;9.230;2022-12-11T06:08:19;12.57;;;9.50;;
8580;SDS011;4328;48.622;9.230;2022-12-11T06:10:46;12.80;;;9.60;;
8580;SDS011;4328;48.622;9.230;2022-12-11T06:13:14;11.73;;;9.77;;
8580;SDS011;4328;48.622;9.230;2022-12-11T06:15:41;13.67;;;9.63;;
8580;SDS011;4328;48.622;9.230;2022-12-11T06:18:09;15.97;;;10.40;;
8580;SDS011;4328;48.622;9.230;2022-12-11T06:20:36;15.00;;;9.77;;
8580;SDS011;4328;48.622;9.230;2022-12-11T06:23:03;14.13;;;9.60;;
8580;SDS011;4328;48.622;9.230;2022-12-11T06:25:30;12.30;;;9.80;;
8580;SDS011;4328;48.622;9.230;2022-12-11T06:27:56;15.27;;;10.93;;
8580;SDS011;4328;48.622;9.230;2022-12-11T06:30:23;13.23;;;10.00;;
8580;SDS011;4328;48.622;9.230;2022-12-11T06:32:50;12.83;;;10.00;;
8580;SDS011;4328;48.622;9.230;2022-12-11T06:35:18;13.47;;;10.03;;
8580;SDS011;4328;48.622;9.230;2022-12-11T06:37:44;14.10;;;9.83;;
8580;SDS011;4328;48.622;9.230;2022-12-11T06:40:11;15.33;;;10.13;;
8580;SDS011;4328;48.622;9.230;2022-12-11T06:42:38;14.63;;;9.50;;
8580;SDS011;4328;48.622;9.230;2022-12-11T06:45:05;13.67;;;9.80;;
8580;SDS011;4328;48.622;9.230;2022-12-11T06:47:32;14.80;;;10.73;;
8580;SDS011;4328;48.622;9.230;2022-12-11T06:49:59;14.07;;;10.00;;
8580;SDS011;4328;48.622;9.230;2022-12-11T06:52:27;13.90;;;10.20;;
8580;SDS011;4328;48.622;9.230;2022-12-11T06:54:54;12.93;;;9.20;;
8580;SDS011;4328;48.622;9.230;2022-12-11T06:57:21;12.67;;;9.23;;
8580;SDS011;4328;48.622;9.230;2022-12-11T06:59:48;13.23;;;9.90;;
8580;SDS011;4328;48.622;9.230;2022-12-11T07:02:16;12.20;;;9.47;;
8580;SDS011;4328;48.622;9.230;2022-12-11T07:04:44;13.53;;;9.33;;
8580;SDS011;4328;48.622;9.230;2022-12-11T07:07:11;13.30;;;9.57;;
8580;SDS011;4328;48.622;9.230;2022-12-11T07:09:39;13.40;;;8.97;;
8580;SDS011;4328;48.622;9.230;2022-12-11T07:12:06;14.03;;;9.60;;
8580;SDS011;4328;48.622;9.230;2022-12-11T07:14:33;13.53;;;9.67;;
8580;SDS011;4328;48.622;9.230;2022-12-11T07:17:00;13.57;;;9.60;;
8580;SDS011;4328;48.622;9.230;2022-12-11T07:19:27;12.87;;;10.13;;
8580;SDS011;4328;48.622;9.230;2022-12-11T07:21:55;13.60;;;9.80;;
8580;SDS011;4328;48.622;9.230;2022-12-11T07:24:21;14.23;;;10.37;;
8580;SDS011;4328;48.622;9.230;2022-12-11T07:26:50;12.80;;;9.23;;
8580;SDS011;4328;48.622;9.230;2022-12-11T07:29:17;14.60;;;10.67;;
8580;SDS011;4328;48.622;9.230;2022-12-11T07:31:43;12.73;;;9.70;;
8580;SDS011;4328;48.622;9.230;2022-12-11T07:34:10;13.60;;;9.53;;
8580;SDS011;4328;48.622;9.230;2022-12-11T07:36:39;13.57;;;10.10;;
8580;SDS011;4328;48.622;9.230;2022-12-11T07:39:05;14.50;;;10.17;;
8580;SDS011;4328;48.622;9.230;2022-12-11T07:41:33;13.90;;;10.17;;
8580;SDS011;4328;48.622;9.230;2022-12-11T07:44:01;13.33;;;10.23;;
8580;SDS011;4328;48.622;9.230;2022-12-11T07:46:28;12.87;;;9.93;;
8580;SDS011;4328;48.622;9.230;2022-12-11T07:48:56;13.37;;;9.37;;
8580;SDS011;4328;48.622;9.230;2022-12-11T07:51:25;12.40;;;9.37;;
8580;SDS011;4328;48.622;9.230;2022-12-11T07:53:54;12.00;;;9.17;;
8580;SDS011;4328;48.622;9.230;2022-12-11T07:56:21;11.87;;;9.07;;
8580;SDS011;4328;48.622;9.230;2022-12-11T07:58:48;11.73;;;9.03;;
8580;SDS011;4328;48.622;9.230;2022-12-11T08:01:17;11.97;;;9.40;;
8580;SDS011;4328;48.622;9.230;2022-12-11T08:03:46;11.40;;;8.90;;
8580;SDS011;4328;48.622;9.230;2022-12-11T08:06:13;10.80;;;9.43;;
8580;SDS011;4328;48.622;9.230;2022-12-11T08:08:40;11.03;;;8.57;;
8580;SDS011;4328;48.622;9.230;2022-12-11T08:11:08;13.10;;;9.80;;
8580;SDS011;4328;48.622;9.230;2022-12-11T08:13:37;12.13;;;8.87;;
8580;SDS011;4328;48.622;9.230;2022-12-11T08:16:04;9.97;;;8.70;;
8580;SDS011;4328;48.622;9.230;2022-12-11T08:18:34;12.80;;;11.40;;
8580;SDS011;4328;48.622;9.230;2022-12-11T08:21:03;11.83;;;9.20;;
8580;SDS011;4328;48.622;9.230;2022-12-11T08:23:31;13.27;;;9.90;;
8580;SDS011;4328;48.622;9.230;2022-12-11T08:25:57;10.30;;;8.70;;
8580;SDS011;4328;48.622;9.230;2022-12-11T08:28:24;11.70;;;8.97;;
8580;SDS011;4328;48.622;9.230;2022-12-11T08:30:51;10.53;;;8.33;;
8580;SDS011;4328;48.622;9.230;2022-12-11T08:33:17;10.70;;;8.63;;
8580;SDS011;4328;48.622;9.230;2022-12-11T08:35:45;9.43;;;8.37;;
8580;SDS011;4328;48.622;9.230;2022-12-11T08:38:12;9.50;;;8.53;;
8580;SDS011;4328;48.622;9.230;2022-12-11T08:40:39;10.03;;;8.47;;
8580;SDS011;4328;48.622;9.230;2022-12-11T08:43:06;10.63;;;8.83;;
8580;SDS011;4328;48.622;9.230;2022-12-11T08:45:33;9.87;;;8.80;;
8580;SDS011;4328;48.622;9.230;2022-12-11T08:48:00;11.13;;;9.17;;
8580;SDS011;4328;48.622;9.230;2022-12-11T08:50:27;10.97;;;9.33;;
8580;SDS011;4328;48.622;9.230;2022-12-11T08:52:55;9.60;;;8.53;;
8580;SDS011;4328;48.622;9.230;2022-12-11T08:55:22;11.83;;;9.37;;
8580;SDS011;4328;48.622;9.230;2022-12-11T08:57:49;11.37;;;9.90;;
8580;SDS011;4328;48.622;9.230;2022-12-11T09:00:16;9.90;;;8.90;;
8580;SDS011;4328;48.622;9.230;2022-12-11T09:02:43;10.70;;;8.53;;
8580;SDS011;4328;48.622;9.230;2022-12-11T09:05:10;10.87;;;9.37;;
8580;SDS011;4328;48.622;9.230;2022-12-11T09:07:37;11.17;;;9.57;;
8580;SDS011;4328;48.622;9.230;2022-12-11T09:10:05;9.90;;;8.73;;
8580;SDS011;4328;48.622;9.230;2022-12-11T09:12:34;10.03;;;8.97;;
8580;SDS011;4328;48.622;9.230;2022-12-11T09:15:00;11.10;;;9.20;;
8580;SDS011;4328;48.622;9.230;2022-12-11T09:17:27;11.60;;;9.77;;
8580;SDS011;4328;48.622;9.230;2022-12-11T09:19:54;13.37;;;9.83;;
8580;SDS011;4328;48.622;9.230;2022-12-11T09:22:21;12.23;;;9.90;;
8580;SDS011;4328;48.622;9.230;2022-12-11T09:24:47;10.87;;;9.63;;
8580;SDS011;4328;48.622;9.230;2022-12-11T09:27:15;12.47;;;10.23;;
8580;SDS011;4328;48.622;9.230;2022-12-11T09:29:44;10.83;;;8.87;;
8580;SDS011;4328;48.622;9.230;2022-12-11T09:32:10;11.37;;;9.40;;
8580;SDS011;4328;48.622;9.230;2022-12-11T09:34:37;12.50;;;10.10;;
8580;SDS011;4328;48.622;9.230;2022-12-11T09:37:03;12.03;;;9.97;;
8580;SDS011;4328;48.622;9.230;2022-12-11T09:39:30;11.30;;;9.70;;
8580;SDS011;4328;48.622;9.230;2022-12-11T09:41:58;12.00;;;9.27;;
8580;SDS011;4328;48.622;9.230;2022-12-11T09:44:32;12.67;;;9.70;;
8580;SDS011;4328;48.622;9.230;2022-12-11T09:47:06;11.43;;;8.87;;
8580;SDS011;4328;48.622;9.230;2022-12-11T09:49:57;11.50;;;9.10;;
8580;SDS011;4328;48.622;9.230;2022-12-11T09:52:33;12.90;;;10.00;;
8580;SDS011;4328;48.622;9.230;2022-12-11T09:55:05;11.03;;;9.47;;
8580;SDS011;4328;48.622;9.230;2022-12-11T09:57:41;10.67;;;8.73;;
8580;SDS011;4328;48.622;9.230;2022-12-11T10:00:17;11.83;;;9.30;;
8580;SDS011;4328;48.622;9.230;2022-12-11T10:02:59;13.20;;;9.83;;
8580;SDS011;4328;48.622;9.230;2022-12-11T10:05:44;12.10;;;9.80;;
8580;SDS011;4328;48.622;9.230;2022-12-11T10:08:16;12.80;;;9.70;;
8580;SDS011;4328;48.622;9.230;2022-12-11T10:10:52;13.97;;;9.13;;
8580;SDS011;4328;48.622;9.230;2022-12-11T10:13:24;14.10;;;9.60;;
8580;SDS011;4328;48.622;9.230;2022-12-11T10:16:03;14.73;;;9.80;;
8580;SDS011;4328;48.622;9.230;2022-12-11T10:18:37;13.87;;;10.10;;
8580;SDS011;4328;48.622;9.230;2022-12-11T10:21:05;11.57;;;9.73;;
8580;SDS011;4328;48.622;9.230;2022-12-11T10:23:33;11.53;;;9.53;;
8580;SDS011;4328;48.622;9.230;2022-12-11T10:26:05;11.27;;;8.97;;
8580;SDS011;4328;48.622;9.230;2022-12-11T10:28:36;11.30;;;9.80;;
8580;SDS011;4328;48.622;9.230;2022-12-11T10:31:06;13.10;;;9.53;;
8580;SDS011;4328;48.622;9.230;2022-12-11T10:33:40;12.37;;;9.97;;
8580;SDS011;4328;48.622;9.230;2022-12-11T10:36:16;11.80;;;9.60;;
8580;SDS011;4328;48.622;9.230;2022-12-11T10:38:46;13.03;;;9.33;;
8580;SDS011;4328;48.622;9.230;2022-12-11T10:41:13;11.33;;;9.43;;
8580;SDS011;4328;48.622;9.230;2022-12-11T10:43:45;10.30;;;9.03;;
8580;SDS011;4328;48.622;9.230;2022-12-11T10:46:15;13.13;;;9.93;;
8580;SDS011;4328;48.622;9.230;2022-12-11T10:48:45;11.93;;;9.60;;
8580;SDS011;4328;48.622;9.230;2022-12-11T10:51:12;12.30;;;10.03;;
8580;SDS011;4328;48.622;9.230;2022-12-11T10:53:40;13.13;;;10.13;;
8580;SDS011;4328;48.622;9.230;2022-12-11T10:56:08;11.47;;;9.40;;
8580;SDS011;4328;48.622;9.230;2022-12-11T10:58:37;12.70;;;9.73;;
8580;SDS011;4328;48.622;9.230;2022-12-11T11:01:13;13.83;;;9.77;;
8580;SDS011;4328;48.622;9.230;2022-12-11T11:03:51;11.53;;;8.80;;
8580;SDS011;4328;48.622;9.230;2022-12-11T11:06:20;12.13;;;9.43;;
8580;SDS011;4328;48.622;9.230;2022-12-11T11:08:49;11.33;;;9.50;;
8580;SDS011;4328;48.622;9.230;2022-12-11T11:11:21;12.10;;;8.93;;
8580;SDS011;4328;48.622;9.230;2022-12-11T11:13:51;15.80;;;9.60;;
8580;SDS011;4328;48.622;9.230;2022-12-11T11:16:20;12.97;;;9.67;;
8580;SDS011;4328;48.622;9.230;2022-12-11T11:18:48;10.60;;;8.70;;
8580;SDS011;4328;48.622;9.230;2022-12-11T11:21:18;13.57;;;10.00;;
8580;SDS011;4328;48.622;9.230;2022-12-11T11:23:47;14.00;;;9.27;;
8580;SDS011;4328;48.622;9.230;2022-12-11T11:26:14;15.30;;;12.50;;
8580;SDS011;4328;48.622;9.230;2022-12-11T11:28:41;13.30;;;9.30;;
8580;SDS011;4328;48.622;9.230;2022-12-11T11:31:14;10.20;;;8.27;;
8580;SDS011;4328;48.622;9.230;2022-12-11T11:33:46;11.83;;;8.53;;
8580;SDS011;4328;48.622;9.230;2022-12-11T11:36:21;11.10;;;8.53;;
8580;SDS011;4328;48.622;9.230;2022-12-11T11:38:50;11.40;;;10.00;;
8580;SDS011;4328;48.622;9.230;2022-12-11T11:41:30;25.17;;;21.53;;
8580;SDS011;4328;48.622;9.230;2022-12-11T11:44:03;13.10;;;9.57;;
8580;SDS011;4328;48.622;9.230;2022-12-11T11:46:32;11.73;;;8.93;;
8580;SDS011;4328;48.622;9.230;2022-12-11T11:49:06;11.33;;;9.10;;
8580;SDS011;4328;48.622;9.230;2022-12-11T11:51:42;11.33;;;9.43;;
8580;SDS011;4328;48.622;9.230;2022-12-11T11:54:17;11.70;;;9.17;;
8580;SDS011;4328;48.622;9.230;2022-12-11T11:56:50;11.60;;;9.47;;
8580;SDS011;4328;48.622;9.230;2022-12-11T11:59:22;11.90;;;8.53;;
8580;SDS011;4328;48.622;9.230;2022-12-11T12:01:54;11.43;;;9.73;;
8580;SDS011;4328;48.622;9.230;2022-12-11T12:04:23;13.10;;;9.60;;
8580;SDS011;4328;48.622;9.230;2022-12-11T12:06:58;12.33;;;9.57;;
8580;SDS011;4328;48.622;9.230;2022-12-11T12:09:40;12.40;;;10.10;;
8580;SDS011;4328;48.622;9.230;2022-12-11T12:12:15;12.50;;;9.80;;
8580;SDS011;4328;48.622;9.230;2022-12-11T12:14:52;13.20;;;10.40;;
8580;SDS011;4328;48.622;9.230;2022-12-11T12:17:29;13.07;;;9.13;;
8580;SDS011;4328;48.622;9.230;2022-12-11T12:20:07;15.03;;;9.17;;
8580;SDS011;4328;48.622;9.230;2022-12-11T12:25:47;9.00;;;7.47;;
8580;SDS011;4328;48.622;9.230;2022-12-11T12:28:21;10.27;;;7.77;;
8580;SDS011;4328;48.622;9.230;2022-12-11T12:31:02;11.27;;;7.70;;
8580;SDS011;4328;48.622;9.230;2022-12-11T12:33:43;9.97;;;7.30;;
8580;SDS011;4328;48.622;9.230;2022-12-11T12:36:19;9.00;;;7.53;;
8580;SDS011;4328;48.622;9.230;2022-12-11T12:38:54;8.10;;;6.80;;
8580;SDS011;4328;48.622;9.230;2022-12-11T12:41:28;8.17;;;6.50;;
8580;SDS011;4328;48.622;9.230;2022-12-11T12:44:05;9.97;;;6.40;;
8580;SDS011;4328;48.622;9.230;2022-12-11T12:46:45;8.50;;;6.50;;
8580;SDS011;4328;48.622;9.230;2022-12-11T12:49:24;12.53;;;8.53;;
8580;SDS011;4328;48.622;9.230;2022-12-11T12:51:57;9.07;;;6.40;;
8580;SDS011;4328;48.622;9.230;2022-12-11T12:54:26;6.53;;;5.87;;
8580;SDS011;4328;48.622;9.230;2022-12-11T12:56:54;8.00;;;6.87;;
8580;SDS011;4328;48.622;9.230;2022-12-11T12:59:23;7.87;;;7.07;;
8580;SDS011;4328;48.622;9.230;2022-12-11T13:01:52;9.63;;;6.77;;
8580;SDS011;4328;48.622;9.230;2022-12-11T13:04:27;9.03;;;7.00;;
8580;SDS011;4328;48.622;9.230;2022-12-11T13:07:10;8.10;;;7.03;;
8580;SDS011;4328;48.622;9.230;2022-12-11T13:09:40;9.57;;;7.53;;
8580;SDS011;4328;48.622;9.230;2022-12-11T13:12:11;12.00;;;7.93;;
8580;SDS011;4328;48.622;9.230;2022-12-11T13:14:40;9.47;;;7.53;;
8580;SDS011;4328;48.622;9.230;2022-12-11T13:17:22;9.47;;;7.93;;
8580;SDS011;4328;48.622;9.230;2022-12-11T13:20:05;12.10;;;8.00;;
8580;SDS011;4328;48.622;9.230;2022-12-11T13:25:51;10.23;;;7.33;;
8580;SDS011;4328;48.622;9.230;2022-12-11T13:28:21;9.03;;;7.37;;
8580;SDS011;4328;48.622;9.230;2022-12-11T13:33:37;8.60;;;7.10;;
8580;SDS011;4328;48.622;9.230;2022-12-11T13:39:07;8.57;;;6.63;;
8580;SDS011;4328;48.622;9.230;2022-12-11T13:41:43;9.37;;;7.20;;
8580;SDS011;4328;48.622;9.230;2022-12-11T13:44:12;9.50;;;6.90;;
8580;SDS011;4328;48.622;9.230;2022-12-11T13:46:45;9.57;;;7.90;;
8580;SDS011;4328;48.622;9.230;2022-12-11T13:49:17;10.10;;;8.03;;
8580;SDS011;4328;48.622;9.230;2022-12-11T13:51:51;9.80;;;7.33;;
8580;SDS011;4328;48.622;9.230;2022-12-11T13:54:24;10.93;;;8.27;;
8580;SDS011;4328;48.622;9.230;2022-12-11T13:56:56;12.47;;;8.23;;
8580;SDS011;4328;48.622;9.230;2022-12-11T13:59:27;10.60;;;8.63;;
8580;SDS011;4328;48.622;9.230;2022-12-11T14:01:57;9.47;;;7.67;;
8580;SDS011;4328;48.622;9.230;2022-12-11T14:04:29;9.73;;;7.40;;
8580;SDS011;4328;48.622;9.230;2022-12-11T14:06:59;9.80;;;7.73;;
8580;SDS011;4328;48.622;9.230;2022-12-11T14:09:28;10.17;;;8.40;;
8580;SDS011;4328;48.622;9.230;2022-12-11T14:11:55;35.17;;;22.43;;
8580;SDS011;4328;48.622;9.230;2022-12-11T14:14:24;13.70;;;10.80;;
8580;SDS011;4328;48.622;9.230;2022-12-11T14:16:57;12.33;;;8.97;;
8580;SDS011;4328;48.622;9.230;2022-12-11T14:19:26;10.43;;;7.40;;
8580;SDS011;4328;48.622;9.230;2022-12-11T14:21:54;10.37;;;7.27;;
8580;SDS011;4328;48.622;9.230;2022-12-11T14:24:22;15.70;;;9.40;;
8580;SDS011;4328;48.622;9.230;2022-12-11T14:26:50;12.13;;;8.77;;
8580;SDS011;4328;48.622;9.230;2022-12-11T14:29:25;9.93;;;7.40;;
8580;SDS011;4328;48.622;9.230;2022-12-11T14:31:55;10.23;;;8.00;;
8580;SDS011;4328;48.622;9.230;2022-12-11T14:34:26;9.27;;;7.07;;
8580;SDS011;4328;48.622;9.230;2022-12-11T14:36:57;9.63;;;7.33;;
8580;SDS011;4328;48.622;9.230;2022-12-11T14:39:27;12.23;;;8.77;;
8580;SDS011;4328;48.622;9.230;2022-12-11T14:42:00;12.60;;;8.10;;
8580;SDS011;4328;48.622;9.230;2022-12-11T14:44:31;12.13;;;8.20;;
8580;SDS011;4328;48.622;9.230;2022-12-11T14:47:12;11.20;;;7.60;;
8580;SDS011;4328;48.622;9.230;2022-12-11T14:49:43;10.03;;;8.63;;
8580;SDS011;4328;48.622;9.230;2022-12-11T14:52:14;12.20;;;8.77;;
8580;SDS011;4328;48.622;9.230;2022-12-11T14:54:43;10.63;;;8.70;;
8580;SDS011;4328;48.622;9.230;2022-12-11T14:57:19;10.13;;;8.20;;
8580;SDS011;4328;48.622;9.230;2022-12-11T14:59:49;10.30;;;7.93;;
8580;SDS011;4328;48.622;9.230;2022-12-11T15:02:25;12.30;;;8.17;;
8580;SDS011;4328;48.622;9.230;2022-12-11T15:04:58;11.60;;;8.03;;
8580;SDS011;4328;48.622;9.230;2022-12-11T15:07:29;10.40;;;7.53;;
8580;SDS011;4328;48.622;9.230;2022-12-11T15:09:55;11.07;;;9.03;;
8580;SDS011;4328;48.622;9.230;2022-12-11T15:12:23;10.00;;;8.33;;
8580;SDS011;4328;48.622;9.230;2022-12-11T15:14:51;9.23;;;8.03;;
8580;SDS011;4328;48.622;9.230;2022-12-11T15:17:20;9.23;;;7.10;;
8580;SDS011;4328;48.622;9.230;2022-12-11T15:19:49;9.43;;;7.07;;
8580;SDS011;4328;48.622;9.230;2022-12-11T15:22:19;10.40;;;7.80;;
8580;SDS011;4328;48.622;9.230;2022-12-11T15:24:49;11.90;;;8.00;;
8580;SDS011;4328;48.622;9.230;2022-12-11T15:27:24;10.33;;;7.27;;
8580;SDS011;4328;48.622;9.230;2022-12-11T15:29:56;9.67;;;6.97;;